WMSA/SZB METAR and TAF weather

Enter ICAO airport designator
Station Type Date Time Source
WMSA METAR 2018/12/15 02:00 UTC NOAA

WMSA 150200Z 31004KT 280V010 9999 FEW018TCU BKN280 27/24 Q1012


Station Type Date Time Source
WMSA Decoded METAR 2018/12/15 02:00 UTC NOAA

Subang/Sultan Abdul Aziz Shah Airport, Malaysia (WMSA) 03-07N 101-32E
Dec 14, 2018 - 09:00 PM EST / 2018.12.15 0200 UTC
Wind: from the NW (310 degrees) at 5 MPH (4 KT) (direction variable):0
Visibility: greater than 7 mile(s):0
Sky conditions: mostly cloudy
Weather: Towering cumulus clouds observed
Temperature: 80 F (27 C)
Dew Point: 75 F (24 C)
Relative Humidity: 83%
Pressure (altimeter): 29.88 in. Hg (1012 hPa)
ob: WMSA 150200Z 31004KT 280V010 9999 FEW018TCU BKN280 27/24 Q1012
cycle: 2

Station Type Date Time Source
WMSA TAF 2018/12/14 18:09 UTC NOAA

TAF WMSA 141700Z 1418/1518 VRB02KT 6000 FEW017CB
BECMG 1500/1502 19005KT 9000
TEMPO 1507/1512 20008KT 3000 TSRA FEW010 FEW017CB SCT018
BECMG 1513/1514 VRB02KT FEW018


Example: see airport list